createdAt,value
2023-04-07T00:00:06.297Z,7.25
2023-04-07T00:02:08.988Z,7.78
2023-04-07T00:04:11.717Z,8.20
2023-04-07T00:06:14.352Z,7.65
2023-04-07T00:08:16.909Z,7.70
2023-04-07T00:10:20.825Z,7.60
2023-04-07T00:12:23.380Z,7.70
2023-04-07T00:14:25.920Z,6.57
2023-04-07T00:16:28.593Z,7.95
2023-04-07T00:18:31.119Z,7.72
2023-04-07T00:20:33.683Z,7.90
2023-04-07T00:22:36.251Z,8.15
2023-04-07T00:24:38.828Z,8.02
2023-04-07T00:26:42.728Z,8.77
2023-04-07T00:28:45.293Z,8.65
2023-04-07T00:30:47.939Z,8.52
2023-04-07T00:32:51.366Z,9.32
2023-04-07T00:34:54.001Z,8.20
2023-04-07T00:36:56.874Z,9.20
2023-04-07T00:38:59.396Z,9.23
2023-04-07T00:41:02.066Z,7.10
2023-04-07T00:43:05.976Z,9.18
2023-04-07T00:45:10.143Z,9.60
2023-04-07T00:47:13.371Z,9.35
2023-04-07T00:49:17.777Z,9.15
2023-04-07T00:51:22.290Z,8.80
2023-04-07T00:53:25.232Z,9.93
2023-04-07T00:55:27.907Z,9.32
2023-04-07T00:57:30.441Z,9.23
2023-04-07T00:59:34.700Z,9.23
2023-04-07T01:01:45.418Z,9.57
2023-04-07T01:03:54.825Z,9.00
2023-04-07T01:06:01.984Z,9.52
2023-04-07T01:08:13.974Z,8.75
2023-04-07T01:10:24.596Z,9.65
2023-04-07T01:12:36.157Z,9.57
2023-04-07T01:14:48.024Z,9.40
2023-04-07T01:19:01.299Z,9.50
2023-04-07T01:21:07.542Z,9.85
2023-04-07T01:23:15.049Z,10.05
2023-04-07T01:25:30.411Z,9.55
2023-04-07T01:27:39.239Z,9.55
2023-04-07T01:29:47.787Z,10.30
2023-04-07T01:31:51.446Z,10.02
2023-04-07T01:33:56.325Z,10.10
2023-04-07T01:36:01.049Z,10.13
2023-04-07T01:38:04.930Z,10.35
2023-04-07T01:40:09.638Z,9.57
2023-04-07T01:42:13.439Z,10.30
2023-04-07T01:44:16.568Z,9.93
2023-04-07T01:46:21.284Z,10.63
2023-04-07T01:48:24.367Z,9.63
2023-04-07T01:50:27.936Z,9.52
2023-04-07T01:52:31.184Z,10.40
2023-04-07T01:54:34.749Z,9.85
2023-04-07T01:56:37.771Z,10.10
2023-04-07T01:58:40.663Z,10.95
2023-04-07T02:00:43.458Z,9.57
2023-04-07T02:02:50.466Z,10.45
2023-04-07T02:04:56.721Z,9.38
2023-04-07T02:07:04.057Z,9.80
2023-04-07T02:09:11.680Z,9.90
2023-04-07T02:11:15.369Z,9.95
2023-04-07T02:13:21.233Z,9.90
2023-04-07T02:15:25.048Z,10.52
2023-04-07T02:17:29.441Z,8.85
2023-04-07T02:19:34.688Z,9.98
2023-04-07T02:21:37.885Z,9.27
2023-04-07T02:23:40.579Z,10.40
2023-04-07T02:25:43.225Z,9.93
2023-04-07T02:27:45.875Z,10.02
2023-04-07T02:29:48.449Z,9.55
2023-04-07T02:31:51.047Z,9.93
2023-04-07T02:33:53.766Z,10.43
2023-04-07T02:35:57.741Z,9.27
2023-04-07T02:38:00.361Z,9.70
2023-04-07T02:40:03.114Z,9.77
2023-04-07T02:42:05.840Z,10.13
2023-04-07T02:44:08.397Z,9.75
2023-04-07T02:46:11.030Z,10.30
2023-04-07T02:48:13.660Z,8.98
2023-04-07T02:50:16.396Z,9.05
2023-04-07T02:52:20.284Z,9.90
2023-04-07T02:54:22.870Z,8.57
2023-04-07T02:56:25.770Z,9.68
2023-04-07T02:58:28.382Z,9.63
2023-04-07T03:00:31.189Z,8.95
2023-04-07T03:02:34.019Z,9.13
2023-04-07T03:04:36.626Z,9.07
2023-04-07T03:06:39.186Z,9.30
2023-04-07T03:08:43.528Z,9.00
2023-04-07T03:10:46.192Z,9.55
2023-04-07T03:12:48.710Z,9.98
2023-04-07T03:14:51.251Z,9.07
2023-04-07T03:16:53.840Z,10.05
2023-04-07T03:18:56.383Z,9.65
2023-04-07T03:20:59.614Z,10.02
2023-04-07T03:23:02.880Z,10.50
2023-04-07T03:25:07.820Z,10.20
2023-04-07T03:27:10.412Z,10.55
2023-04-07T03:29:13.050Z,9.57
2023-04-07T03:31:15.908Z,10.93
2023-04-07T03:33:18.488Z,9.77
2023-04-07T03:35:21.034Z,10.07
2023-04-07T03:37:23.702Z,10.25
2023-04-07T03:39:26.343Z,9.05
2023-04-07T03:41:30.360Z,9.25
2023-04-07T03:43:32.944Z,10.52
2023-04-07T03:45:35.574Z,10.52
2023-04-07T03:47:38.126Z,9.73
2023-04-07T03:49:40.919Z,10.57
2023-04-07T03:51:43.557Z,10.48
2023-04-07T03:53:46.317Z,10.48
2023-04-07T03:55:49.028Z,9.73
2023-04-07T03:57:52.943Z,9.65
2023-04-07T03:59:56.161Z,9.48
2023-04-07T04:01:58.806Z,9.40
2023-04-07T04:04:01.972Z,10.30
2023-04-07T04:06:05.075Z,10.25
2023-04-07T04:08:08.246Z,10.15
2023-04-07T04:10:11.423Z,9.80
2023-04-07T04:12:14.049Z,10.60
2023-04-07T04:14:17.999Z,9.18
2023-04-07T04:16:20.621Z,9.63
2023-04-07T04:18:23.246Z,9.07
2023-04-07T04:20:25.823Z,9.10
2023-04-07T04:22:28.373Z,9.23
2023-04-07T04:24:30.909Z,9.85
2023-04-07T04:26:33.493Z,9.60
2023-04-07T04:28:36.339Z,9.20
2023-04-07T04:30:40.270Z,10.07
2023-04-07T04:32:42.829Z,9.32
2023-04-07T04:34:45.812Z,9.68
2023-04-07T04:36:49.174Z,9.32
2023-04-07T04:38:51.808Z,9.13
2023-04-07T04:40:54.398Z,9.60
2023-04-07T04:42:56.928Z,8.93
2023-04-07T04:44:59.460Z,9.32
2023-04-07T04:47:03.414Z,8.63
2023-04-07T04:49:06.464Z,9.80
2023-04-07T04:51:09.139Z,8.55
2023-04-07T04:53:11.690Z,9.27
2023-04-07T04:55:14.664Z,8.88
2023-04-07T04:57:17.406Z,9.50
2023-04-07T04:59:20.010Z,9.73
2023-04-07T05:01:22.798Z,10.07
2023-04-07T05:03:28.192Z,9.55
2023-04-07T05:05:30.908Z,8.98
2023-04-07T05:07:35.133Z,9.07
2023-04-07T05:09:37.718Z,8.65
2023-04-07T05:11:43.250Z,10.07
2023-04-07T05:13:48.714Z,9.65
2023-04-07T05:15:51.346Z,9.07
2023-04-07T05:17:53.954Z,9.13
2023-04-07T05:19:57.865Z,8.50
2023-04-07T05:22:00.616Z,9.90
2023-04-07T05:24:03.249Z,8.88
2023-04-07T05:26:05.943Z,9.20
2023-04-07T05:28:08.501Z,7.95
2023-04-07T05:30:11.806Z,8.73
2023-04-07T05:32:14.376Z,9.05
2023-04-07T05:34:16.927Z,9.80
2023-04-07T05:36:20.840Z,8.82
2023-04-07T05:38:23.452Z,9.95
2023-04-07T05:40:26.092Z,9.00
2023-04-07T05:42:28.632Z,9.68
2023-04-07T05:44:31.193Z,9.05
2023-04-07T05:46:33.767Z,8.77
2023-04-07T05:48:36.510Z,8.38
2023-04-07T05:50:39.052Z,9.05
2023-04-07T05:52:42.922Z,9.13
2023-04-07T05:54:45.715Z,9.93
2023-04-07T05:56:48.353Z,10.63
2023-04-07T05:58:51.242Z,9.93
2023-04-07T06:00:54.746Z,10.32
2023-04-07T06:02:57.430Z,11.93
2023-04-07T06:05:00.376Z,11.05
2023-04-07T06:07:03.067Z,10.43
2023-04-07T06:09:08.190Z,10.32
2023-04-07T06:11:11.071Z,10.27
2023-04-07T06:13:13.652Z,10.52
2023-04-07T06:15:16.409Z,10.23
2023-04-07T06:17:19.056Z,10.13
2023-04-07T06:19:21.615Z,9.98
2023-04-07T06:21:24.839Z,10.32
2023-04-07T06:23:27.641Z,9.98
2023-04-07T06:25:31.541Z,10.40
2023-04-07T06:27:34.170Z,10.60
2023-04-07T06:29:36.746Z,10.82
2023-04-07T06:31:39.308Z,10.57
2023-04-07T06:33:41.945Z,12.00
2023-04-07T06:35:44.581Z,10.23
2023-04-07T06:37:47.144Z,11.88
2023-04-07T06:39:49.992Z,11.02
2023-04-07T06:41:53.909Z,9.38
2023-04-07T06:43:56.470Z,10.02
2023-04-07T06:45:59.106Z,11.00
2023-04-07T06:48:01.985Z,10.32
2023-04-07T06:50:04.799Z,11.25
2023-04-07T06:52:07.357Z,11.73
2023-04-07T06:54:12.849Z,10.43
2023-04-07T06:56:15.670Z,10.40
2023-04-07T06:58:19.555Z,10.65
2023-04-07T07:00:22.954Z,10.90
2023-04-07T07:02:26.016Z,10.45
2023-04-07T07:04:28.912Z,11.35
2023-04-07T07:06:31.734Z,11.02
2023-04-07T07:08:34.675Z,10.77
2023-04-07T07:10:37.252Z,9.75
2023-04-07T07:12:39.784Z,10.63
2023-04-07T07:14:43.697Z,12.13
2023-04-07T07:16:46.278Z,10.80
2023-04-07T07:18:48.836Z,11.60
2023-04-07T07:20:51.636Z,10.77
2023-04-07T07:22:54.177Z,9.70
2023-04-07T07:24:56.754Z,10.55
2023-04-07T07:26:59.289Z,10.70
2023-04-07T07:29:02.355Z,10.55
2023-04-07T07:31:12.872Z,11.18
2023-04-07T07:33:15.456Z,10.18
2023-04-07T07:35:18.368Z,10.90
2023-04-07T07:37:21.013Z,10.95
2023-04-07T07:39:23.751Z,10.93
2023-04-07T07:41:27.168Z,11.20
2023-04-07T07:43:30.016Z,10.80
2023-04-07T07:45:32.604Z,10.82
2023-04-07T07:47:37.557Z,10.80
2023-04-07T07:49:40.241Z,10.57
2023-04-07T07:51:42.847Z,10.18
2023-04-07T07:53:45.889Z,10.73
2023-04-07T07:55:49.573Z,11.00
2023-04-07T07:57:52.134Z,9.68
2023-04-07T07:59:54.680Z,10.60
2023-04-07T08:01:57.303Z,11.10
2023-04-07T08:04:01.276Z,9.70
2023-04-07T08:06:04.129Z,9.75
2023-04-07T08:08:06.793Z,10.35
2023-04-07T08:10:10.378Z,11.13
2023-04-07T08:12:12.943Z,10.35
2023-04-07T08:14:15.799Z,9.90
2023-04-07T08:16:19.335Z,10.95
2023-04-07T08:18:21.987Z,10.27
2023-04-07T08:20:26.580Z,9.30
2023-04-07T08:22:29.167Z,9.77
2023-04-07T08:24:32.652Z,10.00
2023-04-07T08:26:35.277Z,8.90
2023-04-07T08:28:37.910Z,8.55
2023-04-07T08:30:40.511Z,9.23
2023-04-07T08:32:45.370Z,8.23
2023-04-07T08:34:50.394Z,6.80
2023-04-07T08:36:54.274Z,7.85
2023-04-07T08:38:56.879Z,7.85
2023-04-07T08:41:04.416Z,7.05
2023-04-07T08:43:10.444Z,6.65
2023-04-07T08:45:14.389Z,8.50
2023-04-07T08:47:19.131Z,6.93
2023-04-07T08:49:23.618Z,6.55
2023-04-07T08:51:29.627Z,7.00
2023-04-07T08:53:38.846Z,6.97
2023-04-07T08:55:42.292Z,6.50
2023-04-07T08:57:45.331Z,5.63
2023-04-07T08:59:51.377Z,5.70
2023-04-07T09:01:53.970Z,5.90
2023-04-07T09:03:58.349Z,5.47
2023-04-07T09:06:02.084Z,5.75
2023-04-07T09:08:04.782Z,4.97
2023-04-07T09:10:09.851Z,5.65
2023-04-07T09:12:12.823Z,5.50
2023-04-07T09:14:16.165Z,4.97
2023-04-07T09:16:19.638Z,4.65
2023-04-07T09:18:22.255Z,5.07
2023-04-07T09:20:25.321Z,4.68
2023-04-07T09:22:38.748Z,5.10
2023-04-07T09:24:42.654Z,4.60
2023-04-07T09:26:46.633Z,5.00
2023-04-07T09:28:51.585Z,5.40
2023-04-07T09:30:55.454Z,4.50
2023-04-07T09:32:59.772Z,3.88
2023-04-07T09:35:02.443Z,4.45
2023-04-07T09:37:07.117Z,5.40
2023-04-07T09:39:10.686Z,5.25
2023-04-07T09:41:15.263Z,5.55
2023-04-07T09:43:20.387Z,4.57
2023-04-07T09:45:34.118Z,4.65
2023-04-07T09:47:38.224Z,5.18
2023-04-07T09:49:51.178Z,5.72
2023-04-07T09:51:55.951Z,5.35
2023-04-07T09:53:58.531Z,5.65
2023-04-07T09:56:01.064Z,5.40
2023-04-07T09:58:05.142Z,5.82
2023-04-07T10:00:11.281Z,4.10
2023-04-07T10:02:13.901Z,4.03
2023-04-07T10:04:17.683Z,4.25
2023-04-07T10:06:20.800Z,4.00
2023-04-07T10:08:23.795Z,4.45
2023-04-07T10:10:28.698Z,4.07
2023-04-07T10:12:33.539Z,3.65
2023-04-07T10:14:38.088Z,4.03
2023-04-07T10:16:44.852Z,3.47
2023-04-07T10:18:47.542Z,3.90
2023-04-07T10:20:51.096Z,3.90
2023-04-07T10:22:56.913Z,3.45
2023-04-07T10:25:05.547Z,3.30
2023-04-07T10:27:12.932Z,3.50
2023-04-07T10:29:16.840Z,3.80
2023-04-07T10:31:20.008Z,3.30
2023-04-07T10:33:49.395Z,3.65
2023-04-07T10:36:05.860Z,4.70
2023-04-07T10:38:13.828Z,3.63
2023-04-07T10:40:29.924Z,4.10
2023-04-07T10:42:48.590Z,3.70
2023-04-07T10:44:51.448Z,4.50
2023-04-07T10:47:07.366Z,4.25
2023-04-07T10:49:13.185Z,4.53
2023-04-07T10:51:17.766Z,4.00
2023-04-07T10:53:20.424Z,4.30
2023-04-07T10:55:34.315Z,5.05
2023-04-07T10:57:37.646Z,4.20
2023-04-07T10:59:43.363Z,3.33
2023-04-07T11:01:46.318Z,3.65
2023-04-07T11:03:57.856Z,3.53
2023-04-07T11:06:05.936Z,4.05
2023-04-07T11:08:08.793Z,4.30
2023-04-07T11:10:12.391Z,3.47
2023-04-07T11:12:23.674Z,3.53
2023-04-07T11:14:28.140Z,3.90
2023-04-07T11:16:37.826Z,3.58
2023-04-07T11:18:41.419Z,3.88
2023-04-07T11:20:46.297Z,3.55
2023-04-07T11:23:01.772Z,3.28
2023-04-07T11:25:04.841Z,3.20
2023-04-07T11:27:13.347Z,2.75
2023-04-07T11:29:15.900Z,3.78
2023-04-07T11:31:22.970Z,3.38
2023-04-07T11:33:27.361Z,3.20
2023-04-07T11:35:29.982Z,3.45
2023-04-07T11:37:32.665Z,3.65
2023-04-07T11:39:36.841Z,3.50
2023-04-07T11:41:47.738Z,3.45
2023-04-07T11:43:51.018Z,3.85
2023-04-07T11:46:08.262Z,3.35
2023-04-07T11:48:30.220Z,3.55
2023-04-07T11:50:40.310Z,2.88
2023-04-07T11:52:44.021Z,2.70
2023-04-07T11:54:50.515Z,2.80
2023-04-07T11:56:55.586Z,2.50
2023-04-07T11:58:59.104Z,2.83
2023-04-07T12:01:09.020Z,2.50
2023-04-07T12:03:14.587Z,1.83
2023-04-07T12:05:17.633Z,2.17
2023-04-07T12:07:20.871Z,1.67
2023-04-07T12:09:28.752Z,1.75
2023-04-07T12:11:33.761Z,1.60
2023-04-07T12:13:36.743Z,1.73
2023-04-07T12:15:39.290Z,1.50
2023-04-07T12:17:47.822Z,1.30
2023-04-07T12:19:51.505Z,1.38
2023-04-07T12:21:54.056Z,2.10
2023-04-07T12:23:56.622Z,2.17
2023-04-07T12:25:59.202Z,2.05
2023-04-07T12:28:03.083Z,1.65
2023-04-07T12:30:06.640Z,1.92
2023-04-07T12:32:09.242Z,2.38
2023-04-07T12:34:12.038Z,2.30
2023-04-07T12:36:14.649Z,1.98
2023-04-07T12:38:17.182Z,2.00
2023-04-07T12:40:19.786Z,1.95
2023-04-07T12:42:22.346Z,1.70
2023-04-07T12:44:27.919Z,1.60
2023-04-07T12:46:30.550Z,1.83
2023-04-07T12:48:33.143Z,1.65
2023-04-07T12:50:36.364Z,2.22
2023-04-07T12:52:41.015Z,1.40
2023-04-07T12:54:44.370Z,1.40
2023-04-07T12:56:47.751Z,1.30
2023-04-07T12:58:50.345Z,1.88
2023-04-07T13:00:54.577Z,1.42
2023-04-07T13:02:57.692Z,1.55
2023-04-07T13:05:00.336Z,1.40
2023-04-07T13:07:03.088Z,1.13
2023-04-07T13:09:05.698Z,1.83
2023-04-07T13:11:08.487Z,1.20
2023-04-07T13:13:11.184Z,1.00
2023-04-07T13:15:13.870Z,1.10
2023-04-07T13:17:18.646Z,1.30
2023-04-07T13:19:21.195Z,1.10
2023-04-07T13:23:29.200Z,1.65
2023-04-07T13:25:31.979Z,1.27
2023-04-07T13:27:34.520Z,1.23
2023-04-07T13:29:37.213Z,1.50
2023-04-07T13:31:39.836Z,1.40
2023-04-07T13:33:43.970Z,1.52
2023-04-07T13:35:46.547Z,1.40
2023-04-07T13:37:49.103Z,1.35
2023-04-07T13:39:51.672Z,1.27
2023-04-07T13:41:54.240Z,1.63
2023-04-07T13:43:58.314Z,1.63
2023-04-07T13:46:00.897Z,1.70
2023-04-07T13:48:03.885Z,2.55
2023-04-07T13:50:08.708Z,2.50
2023-04-07T13:52:11.519Z,2.45
2023-04-07T13:54:14.051Z,2.22
2023-04-07T13:56:16.634Z,2.10
2023-04-07T13:58:19.231Z,2.53
2023-04-07T14:00:21.917Z,2.53
2023-04-07T14:02:26.050Z,2.28
2023-04-07T14:04:28.766Z,1.75
2023-04-07T14:06:32.758Z,2.17
2023-04-07T14:08:35.335Z,1.75
2023-04-07T14:10:37.925Z,1.80
2023-04-07T14:12:41.091Z,1.88
2023-04-07T14:14:43.670Z,1.90
2023-04-07T14:16:46.269Z,2.20
2023-04-07T14:18:49.402Z,1.70
2023-04-07T14:20:52.011Z,2.05
2023-04-07T14:22:58.847Z,1.73
2023-04-07T14:25:01.569Z,1.65
2023-04-07T14:27:05.348Z,1.92
2023-04-07T14:29:07.929Z,1.70
2023-04-07T14:31:13.530Z,1.52
2023-04-07T14:33:17.290Z,1.55
2023-04-07T14:35:19.903Z,1.35
2023-04-07T14:37:24.552Z,1.30
2023-04-07T14:39:29.050Z,1.42
2023-04-07T14:41:31.650Z,1.48
2023-04-07T14:43:34.273Z,1.55
2023-04-07T14:45:36.913Z,1.83
2023-04-07T14:47:39.521Z,6.50
2023-04-07T14:49:42.100Z,3.88
2023-04-07T14:51:45.246Z,2.20
2023-04-07T14:53:53.319Z,1.80
2023-04-07T14:55:57.209Z,1.35
2023-04-07T14:57:59.745Z,1.20
2023-04-07T15:00:02.429Z,1.38
2023-04-07T15:02:05.133Z,1.10
2023-04-07T15:04:07.841Z,1.50
2023-04-07T15:06:11.345Z,1.10
2023-04-07T15:08:13.924Z,1.60
2023-04-07T15:10:18.472Z,1.88
2023-04-07T15:12:22.371Z,2.00
2023-04-07T15:14:24.920Z,1.90
2023-04-07T15:16:27.788Z,2.15
2023-04-07T15:18:30.537Z,1.73
2023-04-07T15:20:33.949Z,1.60
2023-04-07T15:22:36.862Z,1.92
2023-04-07T15:24:39.460Z,1.77
2023-04-07T15:26:42.000Z,1.80
2023-04-07T15:28:45.930Z,2.03
2023-04-07T15:30:48.530Z,1.70
2023-04-07T15:32:58.782Z,2.30
2023-04-07T15:35:01.508Z,2.05
2023-04-07T15:37:04.541Z,2.10
2023-04-07T15:39:07.691Z,2.15
2023-04-07T15:41:10.244Z,2.50
2023-04-07T15:43:13.348Z,2.30
2023-04-07T15:45:17.270Z,2.30
2023-04-07T15:47:19.817Z,2.10
2023-04-07T15:49:24.859Z,2.40
2023-04-07T15:51:30.350Z,2.60
2023-04-07T15:53:33.021Z,2.28
2023-04-07T15:55:39.428Z,2.10
2023-04-07T15:57:41.994Z,2.35
2023-04-07T15:59:44.630Z,2.38
2023-04-07T16:01:48.862Z,2.67
2023-04-07T16:03:51.591Z,2.40
2023-04-07T16:05:55.334Z,2.25
2023-04-07T16:07:57.947Z,2.53
2023-04-07T16:10:00.570Z,2.35
2023-04-07T16:12:03.204Z,2.30
2023-04-07T16:14:08.372Z,2.67
2023-04-07T16:16:11.722Z,2.03
2023-04-07T16:18:15.860Z,2.88
2023-04-07T16:20:18.462Z,2.33
2023-04-07T16:22:21.115Z,2.50
2023-04-07T16:24:23.855Z,2.42
2023-04-07T16:26:26.404Z,2.50
2023-04-07T16:28:29.000Z,2.80
2023-04-07T16:30:31.586Z,2.97
2023-04-07T16:32:34.275Z,2.50
2023-04-07T16:34:38.240Z,2.60
2023-04-07T16:36:41.260Z,2.60
2023-04-07T16:38:43.812Z,3.42
2023-04-07T16:41:00.709Z,2.90
2023-04-07T16:43:05.794Z,3.33
2023-04-07T16:45:09.226Z,3.05
2023-04-07T16:47:12.310Z,3.20
2023-04-07T16:49:14.875Z,3.38
2023-04-07T16:51:19.191Z,2.90
2023-04-07T16:53:21.931Z,3.60
2023-04-07T16:55:24.606Z,2.97
2023-04-07T16:57:27.192Z,3.30
2023-04-07T16:59:31.212Z,3.17
2023-04-07T17:01:33.870Z,3.40
2023-04-07T17:03:37.587Z,3.55
2023-04-07T17:05:40.392Z,3.10
2023-04-07T17:07:44.255Z,3.47
2023-04-07T17:09:46.866Z,3.40
2023-04-07T17:11:49.491Z,3.70
2023-04-07T17:13:55.848Z,3.20
2023-04-07T17:16:00.497Z,4.20
2023-04-07T17:18:03.083Z,4.10
2023-04-07T17:20:06.380Z,4.32
2023-04-07T17:22:09.304Z,4.43
2023-04-07T17:24:15.318Z,4.72
2023-04-07T17:26:17.870Z,3.45
2023-04-07T17:28:20.397Z,3.30
2023-04-07T17:30:23.104Z,2.72
2023-04-07T17:32:26.151Z,3.05
2023-04-07T17:34:28.836Z,3.20
2023-04-07T17:36:32.476Z,2.63
2023-04-07T17:38:35.028Z,2.47
2023-04-07T17:40:38.972Z,2.33
2023-04-07T17:42:41.701Z,2.08
2023-04-07T17:44:44.617Z,2.00
2023-04-07T17:46:47.316Z,2.47
2023-04-07T17:48:51.835Z,2.75
2023-04-07T17:50:54.408Z,2.17
2023-04-07T17:52:58.664Z,2.60
2023-04-07T17:55:02.382Z,2.30
2023-04-07T17:57:06.322Z,2.60
2023-04-07T17:59:08.856Z,2.67
2023-04-07T18:01:11.615Z,2.50
2023-04-07T18:03:15.297Z,2.70
2023-04-07T18:05:18.009Z,2.10
2023-04-07T18:07:20.923Z,2.00
2023-04-07T18:09:23.497Z,2.25
2023-04-07T18:11:26.278Z,2.35
2023-04-07T18:13:30.220Z,2.75
2023-04-07T18:15:32.909Z,2.03
2023-04-07T18:17:35.581Z,2.10
2023-04-07T18:19:38.219Z,2.17
2023-04-07T18:21:41.585Z,2.30
2023-04-07T18:23:44.198Z,2.60
2023-04-07T18:25:47.063Z,2.17
2023-04-07T18:27:49.631Z,2.33
2023-04-07T18:29:53.513Z,2.25
2023-04-07T18:31:56.049Z,1.92
2023-04-07T18:33:59.061Z,2.78
2023-04-07T18:36:03.873Z,2.50
2023-04-07T18:38:06.550Z,2.13
2023-04-07T18:40:10.012Z,2.30
2023-04-07T18:42:12.680Z,2.47
2023-04-07T18:44:15.588Z,2.75
2023-04-07T18:46:19.582Z,2.45
2023-04-07T18:48:22.453Z,2.95
2023-04-07T18:50:24.996Z,2.90
2023-04-07T18:52:27.830Z,3.00
2023-04-07T18:54:30.467Z,3.15
2023-04-07T18:56:33.456Z,3.22
2023-04-07T18:58:44.247Z,3.15
2023-04-07T19:00:46.963Z,3.50
2023-04-07T19:02:51.046Z,3.13
2023-04-07T19:04:53.761Z,3.28
2023-04-07T19:06:57.498Z,3.00
2023-04-07T19:09:00.413Z,2.97
2023-04-07T19:11:03.624Z,3.50
2023-04-07T19:13:06.210Z,3.03
2023-04-07T19:15:09.559Z,3.50
2023-04-07T19:17:12.616Z,3.17
2023-04-07T19:19:18.220Z,3.33
2023-04-07T19:21:21.104Z,3.20
2023-04-07T19:23:23.666Z,3.30
2023-04-07T19:25:27.154Z,3.40
2023-04-07T19:27:29.722Z,3.22
2023-04-07T19:29:32.292Z,3.45
2023-04-07T19:31:35.359Z,3.42
2023-04-07T19:33:38.152Z,3.00
2023-04-07T19:35:42.113Z,2.88
2023-04-07T19:37:46.761Z,3.13
2023-04-07T19:40:01.797Z,2.55
2023-04-07T19:42:05.386Z,2.95
2023-04-07T19:44:08.050Z,3.30
2023-04-07T19:46:10.664Z,3.20
2023-04-07T19:48:13.259Z,2.60
2023-04-07T19:50:15.820Z,3.15
2023-04-07T19:52:19.724Z,3.30
2023-04-07T19:54:22.933Z,3.42
2023-04-07T19:56:25.927Z,3.95
2023-04-07T19:58:28.899Z,3.80
2023-04-07T20:00:33.110Z,3.30
2023-04-07T20:02:36.280Z,3.50
2023-04-07T20:04:38.983Z,3.80
2023-04-07T20:06:41.527Z,3.50
2023-04-07T20:08:46.223Z,4.03
2023-04-07T20:10:51.288Z,3.55
2023-04-07T20:12:53.919Z,3.35
2023-04-07T20:14:56.456Z,3.67
2023-04-07T20:16:59.064Z,4.00
2023-04-07T20:19:01.633Z,4.30
2023-04-07T20:21:05.787Z,5.15
2023-04-07T20:23:08.383Z,4.25
2023-04-07T20:25:12.399Z,4.85
2023-04-07T20:27:14.938Z,4.22
2023-04-07T20:29:17.480Z,4.45
2023-04-07T20:31:21.186Z,4.60
2023-04-07T20:33:23.820Z,4.63
2023-04-07T20:35:26.578Z,4.38
2023-04-07T20:37:29.168Z,5.07
2023-04-07T20:39:31.804Z,5.00
2023-04-07T20:41:36.340Z,5.05
2023-04-07T20:43:38.880Z,5.28
2023-04-07T20:45:41.702Z,5.70
2023-04-07T20:47:44.613Z,5.20
2023-04-07T20:49:47.196Z,5.15
2023-04-07T20:51:49.762Z,5.22
2023-04-07T20:53:52.346Z,5.40
2023-04-07T20:55:54.923Z,6.20
2023-04-07T20:57:58.814Z,6.03
2023-04-07T21:00:01.396Z,5.93
2023-04-07T21:02:04.210Z,5.53
2023-04-07T21:04:06.977Z,6.07
2023-04-07T21:06:09.664Z,5.55
2023-04-07T21:08:14.359Z,5.85
2023-04-07T21:10:17.943Z,5.50
2023-04-07T21:12:20.510Z,5.13
2023-04-07T21:14:24.671Z,5.38
2023-04-07T21:16:27.223Z,4.80
2023-04-07T21:18:29.804Z,4.72
2023-04-07T21:20:32.414Z,4.43
2023-04-07T21:22:34.960Z,4.18
2023-04-07T21:24:37.504Z,4.57
2023-04-07T21:26:40.048Z,4.30
2023-04-07T21:28:42.636Z,4.60
2023-04-07T21:30:46.602Z,4.78
2023-04-07T21:32:49.263Z,4.20
2023-04-07T21:34:53.102Z,4.25
2023-04-07T21:36:55.672Z,4.00
2023-04-07T21:38:58.299Z,4.60
2023-04-07T21:41:03.264Z,4.70
2023-04-07T21:43:05.873Z,4.00
2023-04-07T21:45:10.132Z,4.30
2023-04-07T21:47:14.794Z,4.10
2023-04-07T21:49:22.330Z,5.00
2023-04-07T21:51:24.882Z,4.60
2023-04-07T21:53:27.562Z,4.30
2023-04-07T21:55:30.110Z,5.35
2023-04-07T21:57:32.694Z,4.85
2023-04-07T21:59:35.936Z,4.82
2023-04-07T22:01:38.597Z,4.78
2023-04-07T22:03:44.292Z,4.75
2023-04-07T22:05:46.991Z,4.07
2023-04-07T22:07:49.984Z,4.82
2023-04-07T22:09:52.648Z,5.10
2023-04-07T22:11:55.776Z,5.10
2023-04-07T22:13:58.374Z,4.80
2023-04-07T22:16:02.175Z,4.38
2023-04-07T22:18:04.987Z,4.90
2023-04-07T22:20:11.145Z,5.50
2023-04-07T22:22:13.696Z,4.70
2023-04-07T22:24:16.610Z,4.90
2023-04-07T22:26:19.298Z,5.72
2023-04-07T22:28:21.873Z,5.32
2023-04-07T22:30:24.629Z,5.35
2023-04-07T22:32:27.343Z,5.13
2023-04-07T22:34:29.932Z,5.32
2023-04-07T22:36:34.339Z,6.03
2023-04-07T22:38:36.896Z,5.50
2023-04-07T22:40:39.434Z,5.70
2023-04-07T22:42:42.027Z,5.25
2023-04-07T22:44:44.557Z,5.30
2023-04-07T22:46:47.171Z,5.45
2023-04-07T22:48:49.994Z,5.80
2023-04-07T22:50:52.662Z,5.88
2023-04-07T22:52:56.556Z,5.75
2023-04-07T22:54:59.115Z,5.60
2023-04-07T22:57:03.072Z,6.00
2023-04-07T22:59:06.063Z,5.57
2023-04-07T23:01:08.689Z,6.50
2023-04-07T23:03:11.608Z,5.43
2023-04-07T23:05:14.268Z,5.50
2023-04-07T23:07:17.099Z,6.32
2023-04-07T23:09:23.635Z,5.85
2023-04-07T23:11:26.288Z,6.00
2023-04-07T23:13:28.837Z,5.78
2023-04-07T23:15:31.411Z,6.30
2023-04-07T23:17:34.018Z,5.97
2023-04-07T23:19:36.611Z,5.97
2023-04-07T23:21:39.616Z,5.68
2023-04-07T23:23:42.512Z,5.78
2023-04-07T23:25:46.735Z,6.40
2023-04-07T23:27:49.272Z,5.40
2023-04-07T23:29:51.998Z,5.60
2023-04-07T23:31:54.633Z,5.75
2023-04-07T23:33:58.668Z,5.60
2023-04-07T23:36:01.302Z,5.93
2023-04-07T23:38:03.857Z,6.07
2023-04-07T23:40:07.721Z,6.07
2023-04-07T23:42:11.792Z,5.65
2023-04-07T23:44:14.354Z,6.20
2023-04-07T23:46:17.014Z,5.82
2023-04-07T23:48:19.660Z,6.07
2023-04-07T23:50:22.245Z,6.07
2023-04-07T23:52:24.860Z,6.18
2023-04-07T23:54:27.680Z,5.68
2023-04-07T23:56:30.506Z,6.13
2023-04-07T23:58:34.400Z,6.13
